Arlington, Oregon
Current Conditions -  °F | °C
As of 12:53 AM on Thursday 23 Oct 2014 (Local Time) from KHRI Reporting Station
Overcast Overcast  
Wind Chill: 59°   Ceiling: 8000
Heat Index: 59°   Visibility: 10mi
Dew Point: 51°   Wind: 0mph
Humidity: 75%   Direction: NA
Pressure: 29.75"   Gusts: NA
Location:  45.72°N, 120.2°W
Report Text: KHRI 230753Z AUTO 00000KT 10SM OVC080 15/11 A2975 RMK AO2 SLP071 T01500106 402170067
Loading
Personal Weather Stations






























Interactive Weather Map
Tropical Storm Tracking
New forecast layout! Learn more

10-Day Weather Forecast

Advertisements
Track Severe Weather on mobile